createdAt,value
2022-10-24T00:01:26.169Z,23.58
2022-10-24T00:03:53.658Z,23.35
2022-10-24T00:06:21.525Z,24.42
2022-10-24T00:08:49.581Z,20.13
2022-10-24T00:11:25.439Z,19.98
2022-10-24T00:13:56.031Z,27.38
2022-10-24T00:16:23.882Z,22.77
2022-10-24T00:18:51.368Z,21.08
2022-10-24T00:21:19.173Z,21.65
2022-10-24T00:23:46.827Z,24.27
2022-10-24T00:26:14.280Z,25.92
2022-10-24T00:28:41.706Z,23.00
2022-10-24T00:31:17.880Z,26.33
2022-10-24T00:33:46.232Z,27.35
2022-10-24T00:36:17.902Z,23.55
2022-10-24T00:38:45.713Z,25.13
2022-10-24T00:41:23.859Z,27.98
2022-10-24T00:43:51.881Z,29.63
2022-10-24T00:46:20.852Z,24.48
2022-10-24T00:48:53.899Z,25.58
2022-10-24T00:51:31.393Z,23.98
2022-10-24T00:54:05.402Z,24.88
2022-10-24T00:56:41.929Z,21.73
2022-10-24T00:59:11.244Z,29.85
2022-10-24T01:01:39.843Z,26.55
2022-10-24T01:04:11.688Z,24.77
2022-10-24T01:07:05.480Z,24.30
2022-10-24T01:10:03.508Z,25.58
2022-10-24T01:13:05.634Z,27.25
2022-10-24T01:15:51.099Z,29.73
2022-10-24T01:21:34.579Z,30.63
2022-10-24T01:24:55.098Z,28.95
2022-10-24T01:27:39.313Z,31.60
2022-10-24T01:30:16.117Z,24.42
2022-10-24T01:33:15.984Z,28.55
2022-10-24T01:36:09.469Z,25.98
2022-10-24T01:38:53.240Z,27.63
2022-10-24T01:41:26.369Z,31.05
2022-10-24T01:44:03.239Z,30.50
2022-10-24T01:46:40.593Z,26.40
2022-10-24T01:49:20.207Z,30.50
2022-10-24T01:51:53.757Z,31.17
2022-10-24T01:54:21.586Z,29.27
2022-10-24T01:56:49.721Z,27.45
2022-10-24T01:59:28.170Z,29.55
2022-10-24T02:02:12.513Z,29.88
2022-10-24T02:05:36.466Z,29.30
2022-10-24T02:08:13.587Z,32.33
2022-10-24T02:10:59.499Z,32.72
2022-10-24T02:13:55.329Z,35.55
2022-10-24T02:16:23.096Z,31.05
2022-10-24T02:18:55.432Z,33.97
2022-10-24T02:21:38.301Z,31.95
2022-10-24T02:24:36.900Z,36.28
2022-10-24T02:27:18.698Z,28.35
2022-10-24T02:30:13.579Z,33.40
2022-10-24T02:32:54.734Z,30.90
2022-10-24T02:35:29.947Z,33.90
2022-10-24T02:38:19.770Z,36.90
2022-10-24T02:40:50.522Z,30.38
2022-10-24T02:43:21.623Z,27.92
2022-10-24T02:45:52.234Z,36.38
2022-10-24T02:48:27.613Z,32.03
2022-10-24T02:50:55.048Z,33.92
2022-10-24T02:53:26.194Z,38.58
2022-10-24T02:55:54.072Z,28.45
2022-10-24T02:58:22.496Z,34.38
2022-10-24T03:00:49.931Z,36.95
2022-10-24T03:03:17.596Z,35.13
2022-10-24T03:05:45.139Z,30.95
2022-10-24T03:08:12.993Z,35.22
2022-10-24T03:10:41.062Z,30.25
2022-10-24T03:13:08.526Z,32.72
2022-10-24T03:15:35.800Z,34.53
2022-10-24T03:18:03.100Z,35.92
2022-10-24T03:20:30.766Z,39.33
2022-10-24T03:22:58.193Z,31.60
2022-10-24T03:25:25.644Z,33.33
2022-10-24T03:27:53.253Z,28.02
2022-10-24T03:30:20.682Z,30.48
2022-10-24T03:32:48.277Z,31.10
2022-10-24T03:35:16.609Z,32.75
2022-10-24T03:37:44.517Z,34.30
2022-10-24T03:40:12.645Z,32.47
2022-10-24T03:42:40.108Z,32.25
2022-10-24T03:45:08.920Z,30.80
2022-10-24T03:47:36.328Z,33.83
2022-10-24T03:50:05.942Z,28.10
2022-10-24T03:52:33.671Z,27.83
2022-10-24T03:55:03.923Z,39.05
2022-10-24T03:57:31.354Z,31.92
2022-10-24T03:59:58.635Z,31.65
2022-10-24T04:02:25.863Z,31.80
2022-10-24T04:04:53.243Z,29.20
2022-10-24T04:07:20.416Z,31.20
2022-10-24T04:09:47.796Z,37.67
2022-10-24T04:12:15.897Z,27.58
2022-10-24T04:14:43.155Z,31.38
2022-10-24T04:17:33.820Z,31.15
2022-10-24T04:20:01.392Z,32.78
2022-10-24T04:22:28.871Z,29.90
2022-10-24T04:24:57.230Z,39.17
2022-10-24T04:27:24.895Z,30.85
2022-10-24T04:29:52.353Z,31.27
2022-10-24T04:32:19.669Z,29.80
2022-10-24T04:34:47.144Z,36.22
2022-10-24T04:37:15.566Z,30.45
2022-10-24T04:39:42.880Z,36.17
2022-10-24T04:42:10.381Z,34.53
2022-10-24T04:44:37.717Z,31.85
2022-10-24T04:47:05.059Z,29.33
2022-10-24T04:49:32.519Z,31.33
2022-10-24T04:51:59.706Z,30.83
2022-10-24T04:54:27.053Z,33.47
2022-10-24T04:56:54.296Z,33.88
2022-10-24T04:59:21.534Z,33.55
2022-10-24T05:01:49.061Z,34.92
2022-10-24T05:04:16.526Z,33.63
2022-10-24T05:06:45.049Z,33.08
2022-10-24T05:09:14.532Z,32.58
2022-10-24T05:11:42.186Z,32.92
2022-10-24T05:14:09.966Z,33.80
2022-10-24T05:16:37.388Z,34.97
2022-10-24T05:19:04.697Z,35.70
2022-10-24T05:21:33.787Z,32.40
2022-10-24T05:24:01.100Z,34.53
2022-10-24T05:26:28.562Z,35.35
2022-10-24T05:28:55.820Z,29.60
2022-10-24T05:31:23.121Z,33.58
2022-10-24T05:33:50.276Z,35.63
2022-10-24T05:36:17.543Z,34.78
2022-10-24T05:38:44.788Z,35.10
2022-10-24T05:41:12.029Z,39.20
2022-10-24T05:43:39.270Z,30.67
2022-10-24T05:46:07.326Z,32.15
2022-10-24T05:48:35.772Z,33.65
2022-10-24T05:51:02.987Z,29.38
2022-10-24T05:53:30.198Z,36.08
2022-10-24T05:55:57.340Z,32.90
2022-10-24T05:58:24.956Z,35.30
2022-10-24T06:00:54.001Z,32.55
2022-10-24T06:03:23.027Z,32.30
2022-10-24T06:05:50.950Z,33.50
2022-10-24T06:08:18.170Z,31.23
2022-10-24T06:10:50.976Z,31.80
2022-10-24T06:13:18.393Z,36.92
2022-10-24T06:15:45.802Z,31.75
2022-10-24T06:18:13.267Z,32.00
2022-10-24T06:20:40.429Z,34.78
2022-10-24T06:23:07.873Z,29.83
2022-10-24T06:25:35.332Z,34.13
2022-10-24T06:28:02.618Z,33.80
2022-10-24T06:30:29.872Z,36.22
2022-10-24T06:32:57.008Z,33.13
2022-10-24T06:35:24.131Z,32.22
2022-10-24T06:37:51.637Z,31.80
2022-10-24T06:40:19.175Z,32.03
2022-10-24T06:42:46.792Z,34.50
2022-10-24T06:45:14.488Z,31.50
2022-10-24T06:47:42.165Z,28.50
2022-10-24T06:50:09.906Z,35.50
2022-10-24T06:52:37.730Z,29.77
2022-10-24T06:55:06.034Z,32.40
2022-10-24T06:57:33.197Z,28.23
2022-10-24T07:00:00.368Z,28.45
2022-10-24T07:02:27.836Z,29.38
2022-10-24T07:04:57.480Z,30.73
2022-10-24T07:07:24.923Z,29.60
2022-10-24T07:09:56.513Z,32.05
2022-10-24T07:12:25.636Z,30.52
2022-10-24T07:14:53.085Z,32.97
2022-10-24T07:17:20.620Z,29.42
2022-10-24T07:19:56.405Z,33.47
2022-10-24T07:22:24.491Z,33.08
2022-10-24T07:24:55.884Z,34.80
2022-10-24T07:27:24.303Z,27.23
2022-10-24T07:29:51.626Z,24.00
2022-10-24T07:32:20.822Z,34.70
2022-10-24T07:34:48.202Z,26.27
2022-10-24T07:37:17.915Z,39.92
2022-10-24T07:39:46.580Z,33.08
2022-10-24T07:42:15.547Z,33.83
2022-10-24T07:44:42.841Z,29.15
2022-10-24T07:47:10.222Z,32.22
2022-10-24T07:49:37.633Z,23.55
2022-10-24T07:52:05.924Z,25.60
2022-10-24T07:54:36.301Z,27.08
2022-10-24T07:57:05.233Z,27.65
2022-10-24T07:59:47.744Z,24.50
2022-10-24T08:02:17.391Z,28.33
2022-10-24T08:04:44.946Z,28.65
2022-10-24T08:07:13.631Z,22.35
2022-10-24T08:09:45.423Z,24.75
2022-10-24T08:12:13.027Z,24.88
2022-10-24T08:14:42.024Z,27.63
2022-10-24T08:17:10.137Z,26.77
2022-10-24T08:19:43.653Z,25.90
2022-10-24T08:22:12.338Z,27.23
2022-10-24T08:24:39.452Z,27.10
2022-10-24T08:27:06.675Z,33.47
2022-10-24T08:29:33.974Z,30.00
2022-10-24T08:32:01.288Z,30.20
2022-10-24T08:34:28.738Z,27.08
2022-10-24T08:36:55.941Z,28.52
2022-10-24T08:39:23.141Z,30.33
2022-10-24T08:42:12.444Z,30.58
2022-10-24T08:44:45.700Z,27.77
2022-10-24T08:47:42.220Z,26.70
2022-10-24T08:50:35.054Z,32.28
2022-10-24T08:53:17.585Z,33.67
2022-10-24T08:55:55.479Z,29.35
2022-10-24T08:58:42.237Z,30.00
2022-10-24T09:01:45.347Z,41.95
2022-10-24T09:04:19.519Z,27.98
2022-10-24T09:06:49.075Z,30.83
2022-10-24T09:09:24.642Z,29.67
2022-10-24T09:14:37.737Z,29.65
2022-10-24T09:17:34.285Z,29.42
2022-10-24T09:20:30.342Z,27.98
2022-10-24T09:23:05.215Z,32.58
2022-10-24T09:25:41.461Z,32.33
2022-10-24T09:28:10.321Z,37.47
2022-10-24T09:30:38.359Z,36.70
2022-10-24T09:33:34.970Z,27.20
2022-10-24T09:36:05.103Z,29.17
2022-10-24T09:38:38.930Z,28.55
2022-10-24T09:41:30.060Z,34.20
2022-10-24T09:44:00.856Z,27.48
2022-10-24T09:46:45.936Z,27.42
2022-10-24T09:49:13.932Z,24.63
2022-10-24T09:51:50.277Z,31.88
2022-10-24T09:54:20.440Z,27.60
2022-10-24T09:57:17.956Z,28.27
2022-10-24T10:00:00.320Z,31.42
2022-10-24T10:02:34.810Z,37.03
2022-10-24T10:05:04.804Z,29.70
2022-10-24T10:07:41.189Z,32.40
2022-10-24T10:11:01.563Z,34.60
2022-10-24T10:13:30.193Z,27.15
2022-10-24T10:16:02.388Z,34.75
2022-10-24T10:18:38.624Z,33.15
2022-10-24T10:21:18.325Z,36.15
2022-10-24T10:23:48.095Z,28.55
2022-10-24T10:26:44.057Z,29.60
2022-10-24T10:29:17.367Z,31.50
2022-10-24T10:31:58.033Z,28.15
2022-10-24T10:34:57.033Z,30.10
2022-10-24T10:37:35.892Z,29.30
2022-10-24T10:40:25.441Z,37.13
2022-10-24T10:43:27.395Z,31.92
2022-10-24T10:46:29.689Z,32.45
2022-10-24T10:49:33.161Z,28.45
2022-10-24T10:52:24.570Z,34.63
2022-10-24T10:55:39.796Z,34.25
2022-10-24T10:58:47.209Z,33.03
2022-10-24T11:02:01.062Z,30.38
2022-10-24T11:04:46.925Z,28.88
2022-10-24T11:07:45.035Z,31.02
2022-10-24T11:10:23.376Z,34.92
2022-10-24T11:12:50.878Z,34.13
2022-10-24T11:15:44.389Z,36.17
2022-10-24T11:18:36.796Z,30.38
2022-10-24T11:21:17.805Z,25.92
2022-10-24T11:24:13.789Z,32.97
2022-10-24T11:30:03.465Z,31.38
2022-10-24T11:33:24.301Z,31.58
2022-10-24T11:36:32.406Z,31.25
2022-10-24T11:39:22.879Z,26.70
2022-10-24T11:42:36.252Z,28.70
2022-10-24T11:45:16.186Z,26.40
2022-10-24T11:47:53.323Z,27.58
2022-10-24T11:50:52.697Z,27.55
2022-10-24T11:53:51.412Z,25.25
2022-10-24T11:56:34.793Z,25.77
2022-10-24T11:59:06.656Z,32.67
2022-10-24T12:02:07.296Z,25.40
2022-10-24T12:04:52.600Z,29.85
2022-10-24T12:08:09.529Z,42.15
2022-10-24T12:11:58.638Z,22.95
2022-10-24T12:14:51.580Z,27.75
2022-10-24T12:18:20.696Z,26.75
2022-10-24T12:20:54.220Z,29.00
2022-10-24T12:23:29.411Z,27.35
2022-10-24T12:26:14.900Z,29.48
2022-10-24T12:28:43.530Z,24.52
2022-10-24T12:31:20.911Z,23.02
2022-10-24T12:34:16.102Z,26.08
2022-10-24T12:37:32.749Z,28.67
2022-10-24T12:40:00.377Z,28.23
2022-10-24T12:42:27.891Z,29.25
2022-10-24T12:45:00.787Z,31.67
2022-10-24T12:47:44.172Z,26.52
2022-10-24T12:51:29.216Z,25.15
2022-10-24T12:54:15.063Z,33.83
2022-10-24T12:56:51.407Z,28.73
2022-10-24T12:59:34.227Z,30.50
2022-10-24T13:02:13.797Z,32.88
2022-10-24T13:05:21.055Z,25.98
2022-10-24T13:08:30.452Z,24.98
2022-10-24T13:12:00.104Z,24.45
2022-10-24T13:14:48.419Z,24.38
2022-10-24T13:17:39.418Z,31.08
2022-10-24T13:20:25.170Z,30.33
2022-10-24T13:23:05.321Z,26.90
2022-10-24T13:25:37.988Z,28.27
2022-10-24T13:28:20.300Z,25.27
2022-10-24T13:31:33.830Z,26.85
2022-10-24T13:34:27.821Z,22.88
2022-10-24T13:37:16.550Z,29.77
2022-10-24T13:40:00.648Z,29.27
2022-10-24T13:42:52.218Z,24.35
2022-10-24T13:45:54.151Z,26.20
2022-10-24T13:48:29.445Z,29.83
2022-10-24T13:54:17.222Z,20.75
2022-10-24T13:56:46.788Z,29.33
2022-10-24T13:59:37.779Z,23.65
2022-10-24T14:02:18.256Z,24.20
2022-10-24T14:04:50.660Z,24.60
2022-10-24T14:07:29.505Z,28.60
2022-10-24T14:10:11.374Z,25.58
2022-10-24T14:12:40.245Z,24.48
2022-10-24T14:15:20.989Z,22.67
2022-10-24T14:18:03.887Z,20.05
2022-10-24T14:20:37.599Z,24.02
2022-10-24T14:23:28.329Z,36.13
2022-10-24T14:26:15.909Z,21.55
2022-10-24T14:28:58.927Z,29.98
2022-10-24T14:31:37.975Z,25.50
2022-10-24T14:34:06.542Z,24.08
2022-10-24T14:36:38.358Z,29.70
2022-10-24T14:39:06.220Z,30.95
2022-10-24T14:41:40.455Z,24.13
2022-10-24T14:44:11.549Z,21.73
2022-10-24T14:46:42.636Z,25.10
2022-10-24T14:49:28.208Z,23.33
2022-10-24T14:52:21.487Z,29.13
2022-10-24T14:55:18.393Z,29.60
2022-10-24T14:57:52.354Z,22.13
2022-10-24T15:00:27.140Z,21.60
2022-10-24T15:02:58.497Z,21.88
2022-10-24T15:05:34.036Z,35.40
2022-10-24T15:08:27.289Z,24.02
2022-10-24T15:11:24.531Z,34.85
2022-10-24T15:14:07.444Z,29.02
2022-10-24T15:16:40.672Z,27.38
2022-10-24T15:19:18.059Z,24.77
2022-10-24T15:21:47.877Z,28.58
2022-10-24T15:24:26.320Z,31.60
2022-10-24T15:27:12.837Z,25.63
2022-10-24T15:29:41.127Z,30.10
2022-10-24T15:32:11.369Z,26.38
2022-10-24T15:34:38.611Z,31.63
2022-10-24T15:37:07.673Z,29.88
2022-10-24T15:39:34.913Z,28.42
2022-10-24T15:44:35.313Z,33.90
2022-10-24T15:47:02.773Z,30.83
2022-10-24T15:49:31.413Z,22.23
2022-10-24T15:52:01.614Z,24.98
2022-10-24T15:54:29.261Z,27.55
2022-10-24T15:56:58.620Z,28.73
2022-10-24T15:59:27.738Z,26.77
2022-10-24T16:02:00.163Z,35.78
2022-10-24T16:04:29.037Z,33.30
2022-10-24T16:06:56.414Z,28.20
2022-10-24T16:09:27.486Z,26.25
2022-10-24T16:11:55.141Z,28.23
2022-10-24T16:14:26.112Z,32.95
2022-10-24T16:16:55.181Z,31.23
2022-10-24T16:19:26.318Z,23.55
2022-10-24T16:21:58.365Z,25.58
2022-10-24T16:24:28.129Z,28.58
2022-10-24T16:26:55.772Z,29.70
2022-10-24T16:29:23.066Z,26.02
2022-10-24T16:31:51.300Z,27.73
2022-10-24T16:34:18.593Z,28.92
2022-10-24T16:36:45.879Z,27.15
2022-10-24T16:39:14.471Z,29.73
2022-10-24T16:41:45.831Z,45.63
2022-10-24T16:44:14.333Z,32.50
2022-10-24T16:46:41.612Z,27.02
2022-10-24T16:49:08.801Z,26.10
2022-10-24T16:51:39.283Z,29.60
2022-10-24T16:54:08.921Z,27.13
2022-10-24T16:56:36.084Z,28.10
2022-10-24T16:59:03.254Z,27.17
2022-10-24T17:01:30.828Z,24.45
2022-10-24T17:03:58.049Z,26.25
2022-10-24T17:06:25.215Z,34.08
2022-10-24T17:08:52.600Z,27.33
2022-10-24T17:11:43.684Z,24.92
2022-10-24T17:16:42.506Z,29.50
2022-10-24T17:19:16.202Z,29.88
2022-10-24T17:21:49.298Z,26.90
2022-10-24T17:24:23.032Z,25.63
2022-10-24T17:26:51.267Z,33.55
2022-10-24T17:29:34.574Z,29.23
2022-10-24T17:32:02.149Z,27.30
2022-10-24T17:34:29.664Z,30.63
2022-10-24T17:37:09.890Z,38.78
2022-10-24T17:39:51.281Z,27.88
2022-10-24T17:42:19.689Z,28.10
2022-10-24T17:44:47.639Z,24.40
2022-10-24T17:47:16.136Z,24.30
2022-10-24T17:49:44.819Z,35.55
2022-10-24T17:52:21.598Z,28.30
2022-10-24T17:54:49.027Z,28.38
2022-10-24T17:57:16.269Z,28.42
2022-10-24T17:59:43.555Z,29.08
2022-10-24T18:02:14.901Z,31.08
2022-10-24T18:04:44.531Z,31.52
2022-10-24T18:07:12.023Z,23.30
2022-10-24T18:09:40.030Z,29.30
2022-10-24T18:12:07.484Z,25.70
2022-10-24T18:14:37.529Z,33.22
2022-10-24T18:17:04.823Z,26.70
2022-10-24T18:19:32.181Z,28.00
2022-10-24T18:21:59.441Z,25.17
2022-10-24T18:24:26.704Z,28.58
2022-10-24T18:26:54.045Z,30.98
2022-10-24T18:29:21.286Z,39.95
2022-10-24T18:31:48.631Z,31.58
2022-10-24T18:34:15.782Z,30.88
2022-10-24T18:36:43.651Z,32.90
2022-10-24T18:39:12.373Z,31.45
2022-10-24T18:42:05.970Z,30.30
2022-10-24T18:44:36.256Z,31.70
2022-10-24T18:47:07.680Z,35.17
2022-10-24T18:49:35.909Z,31.58
2022-10-24T18:52:36.434Z,31.00
2022-10-24T18:55:23.077Z,29.88
2022-10-24T18:57:51.503Z,30.33
2022-10-24T19:00:29.186Z,36.13
2022-10-24T19:03:21.625Z,29.27
2022-10-24T19:06:10.446Z,29.95
2022-10-24T19:08:37.865Z,29.33
2022-10-24T19:11:05.369Z,36.70
2022-10-24T19:13:32.834Z,30.98
2022-10-24T19:16:04.139Z,27.17
2022-10-24T19:18:36.259Z,27.83
2022-10-24T19:21:06.835Z,36.33
2022-10-24T19:23:34.078Z,36.55
2022-10-24T19:26:01.333Z,37.55
2022-10-24T19:28:31.477Z,27.00
2022-10-24T19:30:59.134Z,28.42
2022-10-24T19:33:27.973Z,29.55
2022-10-24T19:35:55.682Z,32.47
2022-10-24T19:38:23.060Z,29.17
2022-10-24T19:40:53.941Z,33.95
2022-10-24T19:43:25.442Z,30.67
2022-10-24T19:46:07.586Z,29.42
2022-10-24T19:48:43.930Z,31.02
2022-10-24T19:51:13.429Z,28.48
2022-10-24T19:53:43.774Z,25.02
2022-10-24T19:56:18.141Z,30.90
2022-10-24T19:58:47.374Z,29.08
2022-10-24T20:01:22.284Z,30.73
2022-10-24T20:03:51.679Z,31.08
2022-10-24T20:06:19.742Z,29.50
2022-10-24T20:08:49.159Z,30.75
2022-10-24T20:11:20.388Z,26.85
2022-10-24T20:13:50.408Z,25.05
2022-10-24T20:16:18.594Z,29.88
2022-10-24T20:18:45.881Z,30.38
2022-10-24T20:21:19.481Z,30.27
2022-10-24T20:23:48.720Z,33.10
2022-10-24T20:26:24.544Z,30.25
2022-10-24T20:28:55.315Z,28.23
2022-10-24T20:31:34.910Z,36.05
2022-10-24T20:34:09.555Z,27.75
2022-10-24T20:36:42.105Z,27.17
2022-10-24T20:39:09.907Z,29.13
2022-10-24T20:41:37.904Z,28.90
2022-10-24T20:44:06.917Z,29.73
2022-10-24T20:46:36.160Z,31.48
2022-10-24T20:49:03.861Z,27.40
2022-10-24T20:51:31.508Z,28.75
2022-10-24T20:53:58.903Z,30.67
2022-10-24T20:56:26.718Z,27.48
2022-10-24T20:58:55.937Z,33.63
2022-10-24T21:01:27.779Z,25.48
2022-10-24T21:03:57.856Z,30.42
2022-10-24T21:06:33.262Z,29.77
2022-10-24T21:09:05.125Z,27.55
2022-10-24T21:11:34.846Z,26.02
2022-10-24T21:14:07.785Z,30.88
2022-10-24T21:16:35.696Z,31.80
2022-10-24T21:19:03.946Z,30.15
2022-10-24T21:21:31.337Z,27.42
2022-10-24T21:24:04.457Z,37.90
2022-10-24T21:26:39.994Z,31.35
2022-10-24T21:29:27.622Z,32.85
2022-10-24T21:31:56.421Z,31.88
2022-10-24T21:34:23.841Z,27.52
2022-10-24T21:36:51.029Z,35.60
2022-10-24T21:39:18.439Z,31.70
2022-10-24T21:41:45.705Z,30.42
2022-10-24T21:44:14.291Z,35.17
2022-10-24T21:46:41.607Z,30.30
2022-10-24T21:49:10.439Z,30.23
2022-10-24T21:51:41.014Z,27.02
2022-10-24T21:54:22.536Z,26.50
2022-10-24T21:56:50.122Z,29.20
2022-10-24T21:59:20.840Z,25.58
2022-10-24T22:01:50.956Z,25.92
2022-10-24T22:04:19.469Z,28.27
2022-10-24T22:06:47.860Z,35.40
2022-10-24T22:09:20.293Z,30.95
2022-10-24T22:11:47.638Z,32.65
2022-10-24T22:14:17.051Z,26.60
2022-10-24T22:16:45.083Z,23.88
2022-10-24T22:19:14.200Z,21.65
2022-10-24T22:21:49.077Z,22.25
2022-10-24T22:24:24.289Z,19.90
2022-10-24T22:26:53.003Z,20.42
2022-10-24T22:29:24.037Z,17.38
2022-10-24T22:31:53.327Z,14.77
2022-10-24T22:34:26.194Z,18.10
2022-10-24T22:37:23.668Z,20.50
2022-10-24T22:39:51.322Z,17.88
2022-10-24T22:42:20.275Z,13.95
2022-10-24T22:44:48.836Z,17.50
2022-10-24T22:47:43.845Z,14.57
2022-10-24T22:50:42.412Z,13.55
2022-10-24T22:53:14.493Z,17.05
2022-10-24T22:56:13.431Z,15.70
2022-10-24T22:58:44.203Z,19.95
2022-10-24T23:02:00.080Z,15.75
2022-10-24T23:04:51.507Z,19.88
2022-10-24T23:07:48.551Z,15.10
2022-10-24T23:10:23.128Z,11.80
2022-10-24T23:12:51.797Z,19.30
2022-10-24T23:15:21.583Z,13.77
2022-10-24T23:17:50.239Z,20.02
2022-10-24T23:20:42.995Z,21.23
2022-10-24T23:23:28.305Z,15.88
2022-10-24T23:26:28.246Z,13.50
2022-10-24T23:29:30.532Z,12.82
2022-10-24T23:31:58.520Z,9.55
2022-10-24T23:34:27.026Z,14.57
2022-10-24T23:37:04.076Z,11.55
2022-10-24T23:39:36.163Z,9.15
2022-10-24T23:42:04.824Z,11.73
2022-10-24T23:44:32.852Z,9.48
2022-10-24T23:47:12.947Z,11.45
2022-10-24T23:50:34.300Z,9.88
2022-10-24T23:53:50.199Z,8.23
2022-10-24T23:56:22.653Z,12.18
2022-10-24T23:58:51.019Z,9.32
